Sao Luis do Quitunde, Brazil
Current Conditions -  °F | °C
As of 1:00 AM on Monday 22 Dec 2014 (Local Time) from SBMO Reporting Station
Clear Clear  
Wind Chill: 72°   Ceiling: Unl
Heat Index: 72°   Visibility: 6mi
Dew Point: 72°   Wind: 2mph
Humidity: 100%   Direction: 30°NNE
Pressure: 29.94"   Gusts: NA
Location:  9.32°S, 35.56°W
Report Text: SBMO 220400Z 03002KT CAVOK 22/22 Q1014
Loading
Personal Weather Stations






























Interactive Weather Map New forecast layout! Learn more

10-Day Weather Forecast

Advertisements
Track Severe Weather on mobile